createdAt,value
2019-01-24T00:00:30.488Z,30.50
2019-01-24T00:02:59.486Z,31.65
2019-01-24T00:05:28.478Z,44.53
2019-01-24T00:07:57.091Z,40.20
2019-01-24T00:10:25.891Z,41.90
2019-01-24T00:12:55.144Z,38.58
2019-01-24T00:15:24.139Z,42.00
2019-01-24T00:17:53.058Z,41.55
2019-01-24T00:20:22.031Z,39.55
2019-01-24T00:22:50.674Z,48.15
2019-01-24T00:25:19.620Z,40.40
2019-01-24T00:27:48.496Z,40.38
2019-01-24T00:30:17.237Z,45.00
2019-01-24T00:32:46.480Z,40.60
2019-01-24T00:35:15.867Z,43.78
2019-01-24T00:37:44.981Z,35.63
2019-01-24T00:40:16.330Z,46.08
2019-01-24T00:42:45.429Z,39.35
2019-01-24T00:45:14.831Z,50.17
2019-01-24T00:47:43.824Z,36.17
2019-01-24T00:50:12.923Z,42.08
2019-01-24T00:52:41.924Z,44.83
2019-01-24T00:55:11.994Z,39.18
2019-01-24T00:57:40.701Z,42.03
2019-01-24T01:00:13.136Z,39.75
2019-01-24T01:02:42.098Z,40.73
2019-01-24T01:05:12.608Z,36.13
2019-01-24T01:07:41.526Z,36.25
2019-01-24T01:10:11.116Z,32.85
2019-01-24T01:12:40.415Z,39.78
2019-01-24T01:15:12.491Z,40.85
2019-01-24T01:17:41.146Z,41.13
2019-01-24T01:20:12.675Z,45.20
2019-01-24T01:22:41.620Z,40.80
2019-01-24T01:25:11.636Z,41.05
2019-01-24T01:27:40.940Z,42.08
2019-01-24T01:30:15.096Z,40.25
2019-01-24T01:32:44.761Z,37.93
2019-01-24T01:35:20.926Z,35.05
2019-01-24T01:37:49.578Z,39.75
2019-01-24T01:40:18.808Z,27.02
2019-01-24T01:42:47.888Z,42.05
2019-01-24T01:45:18.981Z,45.80
2019-01-24T01:47:48.347Z,43.95
2019-01-24T01:50:19.607Z,45.60
2019-01-24T01:52:48.321Z,39.73
2019-01-24T01:55:17.068Z,44.75
2019-01-24T01:57:46.006Z,39.15
2019-01-24T02:00:18.032Z,42.83
2019-01-24T02:02:47.055Z,40.10
2019-01-24T02:05:16.523Z,34.65
2019-01-24T02:07:45.158Z,39.20
2019-01-24T02:10:16.459Z,37.70
2019-01-24T02:12:45.265Z,47.40
2019-01-24T02:15:14.733Z,39.65
2019-01-24T02:17:43.645Z,41.55
2019-01-24T02:20:15.452Z,39.58
2019-01-24T02:22:44.166Z,40.52
2019-01-24T02:25:13.184Z,30.80
2019-01-24T02:27:42.174Z,38.85
2019-01-24T02:30:14.753Z,40.78
2019-01-24T02:32:43.382Z,40.45
2019-01-24T02:35:12.439Z,39.18
2019-01-24T02:37:41.057Z,42.62
2019-01-24T02:40:10.626Z,40.80
2019-01-24T02:42:39.344Z,45.45
2019-01-24T02:45:12.095Z,40.28
2019-01-24T02:47:40.900Z,42.98
2019-01-24T02:50:12.353Z,40.35
2019-01-24T02:52:41.331Z,35.65
2019-01-24T02:55:12.267Z,40.52
2019-01-24T02:57:41.159Z,35.23
2019-01-24T03:00:12.028Z,44.73
2019-01-24T03:02:40.997Z,38.05
2019-01-24T03:05:11.940Z,39.05
2019-01-24T03:07:40.654Z,40.23
2019-01-24T03:10:10.620Z,42.65
2019-01-24T03:12:39.252Z,48.05
2019-01-24T03:15:09.667Z,44.42
2019-01-24T03:17:38.646Z,39.05
2019-01-24T03:20:08.050Z,34.43
2019-01-24T03:22:36.776Z,40.17
2019-01-24T03:25:06.523Z,38.45
2019-01-24T03:27:35.157Z,38.65
2019-01-24T03:30:05.556Z,35.13
2019-01-24T03:32:34.462Z,40.45
2019-01-24T03:35:04.401Z,45.28
2019-01-24T03:37:33.398Z,43.48
2019-01-24T03:40:02.351Z,41.20
2019-01-24T03:42:31.242Z,42.60
2019-01-24T03:45:00.248Z,44.83
2019-01-24T03:47:29.535Z,42.60
2019-01-24T03:49:58.516Z,41.53
2019-01-24T03:52:27.168Z,41.08
2019-01-24T03:54:56.103Z,42.70
2019-01-24T03:57:25.002Z,42.45
2019-01-24T03:59:53.657Z,42.10
2019-01-24T04:02:22.680Z,40.33
2019-01-24T04:04:51.669Z,41.30
2019-01-24T04:07:20.299Z,43.83
2019-01-24T04:09:49.247Z,47.83
2019-01-24T04:12:18.343Z,44.88
2019-01-24T04:14:47.232Z,41.63
2019-01-24T04:17:16.127Z,40.92
2019-01-24T04:19:44.809Z,44.53
2019-01-24T04:22:13.436Z,44.98
2019-01-24T04:24:42.388Z,33.18
2019-01-24T04:27:11.595Z,47.30
2019-01-24T04:29:40.205Z,46.23
2019-01-24T04:32:08.836Z,42.80
2019-01-24T04:34:37.483Z,38.53
2019-01-24T04:37:06.434Z,42.13
2019-01-24T04:39:35.334Z,43.48
2019-01-24T04:42:04.322Z,42.60
2019-01-24T04:44:33.305Z,41.68
2019-01-24T04:47:02.317Z,45.73
2019-01-24T04:49:30.983Z,46.90
2019-01-24T04:51:59.899Z,44.83
2019-01-24T04:54:29.191Z,41.80
2019-01-24T04:56:58.186Z,35.23
2019-01-24T04:59:27.625Z,42.30
2019-01-24T05:01:56.683Z,47.85
2019-01-24T05:04:25.314Z,41.25
2019-01-24T05:06:54.262Z,47.90
2019-01-24T05:09:22.904Z,47.62
2019-01-24T05:11:51.940Z,43.78
2019-01-24T05:14:20.834Z,47.88
2019-01-24T05:16:50.026Z,48.68
2019-01-24T05:19:19.022Z,42.30
2019-01-24T05:21:48.220Z,45.10
2019-01-24T05:24:16.849Z,46.45
2019-01-24T05:26:45.496Z,40.60
2019-01-24T05:29:14.212Z,53.13
2019-01-24T05:31:42.871Z,48.13
2019-01-24T05:34:12.164Z,51.45
2019-01-24T05:36:41.180Z,49.75
2019-01-24T05:39:10.160Z,48.08
2019-01-24T05:41:38.791Z,46.58
2019-01-24T05:44:07.434Z,45.92
2019-01-24T05:46:36.093Z,50.65
2019-01-24T05:49:04.818Z,47.17
2019-01-24T05:51:33.789Z,47.40
2019-01-24T05:54:03.092Z,48.38
2019-01-24T05:56:31.740Z,42.98
2019-01-24T05:59:00.663Z,42.78
2019-01-24T06:01:29.943Z,42.53
2019-01-24T06:03:58.628Z,51.88
2019-01-24T06:06:27.551Z,50.52
2019-01-24T06:08:56.540Z,48.13
2019-01-24T06:11:25.283Z,44.70
2019-01-24T06:13:53.931Z,52.62
2019-01-24T06:16:22.575Z,45.52
2019-01-24T06:18:51.796Z,44.08
2019-01-24T06:21:20.785Z,46.63
2019-01-24T06:23:49.424Z,44.30
2019-01-24T06:26:18.094Z,50.23
2019-01-24T06:28:46.720Z,54.03
2019-01-24T06:31:15.333Z,43.85
2019-01-24T06:33:44.325Z,45.03
2019-01-24T06:36:13.716Z,43.38
2019-01-24T06:38:42.625Z,47.03
2019-01-24T06:41:11.288Z,46.68
2019-01-24T06:43:40.193Z,51.10
2019-01-24T06:46:08.811Z,46.75
2019-01-24T06:48:37.818Z,49.80
2019-01-24T06:51:06.770Z,43.95
2019-01-24T06:53:35.806Z,43.38
2019-01-24T06:56:04.521Z,41.63
2019-01-24T06:58:33.176Z,45.23
2019-01-24T07:01:01.811Z,39.75
2019-01-24T07:03:30.535Z,46.05
2019-01-24T07:05:59.166Z,47.17
2019-01-24T07:08:28.087Z,49.20
2019-01-24T07:10:57.150Z,42.33
2019-01-24T07:13:26.384Z,44.40
2019-01-24T07:15:55.052Z,45.80
2019-01-24T07:18:24.067Z,49.40
2019-01-24T07:20:52.694Z,42.60
2019-01-24T07:23:21.745Z,38.65
2019-01-24T07:25:51.150Z,45.43
2019-01-24T07:28:20.173Z,46.70
2019-01-24T07:30:49.127Z,45.12
2019-01-24T07:33:18.331Z,40.12
2019-01-24T07:35:47.324Z,47.48
2019-01-24T07:38:15.964Z,53.38
2019-01-24T07:40:46.236Z,42.38
2019-01-24T07:43:15.765Z,43.60
2019-01-24T07:45:44.429Z,47.10
2019-01-24T07:48:13.072Z,43.98
2019-01-24T07:50:42.008Z,44.80
2019-01-24T07:53:11.004Z,47.33
2019-01-24T07:55:39.996Z,52.50
2019-01-24T07:58:08.884Z,40.92
2019-01-24T08:00:37.537Z,41.02
2019-01-24T08:03:06.566Z,43.55
2019-01-24T08:05:35.532Z,41.75
2019-01-24T08:08:04.561Z,42.88
2019-01-24T08:10:33.546Z,43.85
2019-01-24T08:13:02.266Z,41.68
2019-01-24T08:15:31.329Z,40.73
2019-01-24T08:18:00.322Z,40.17
2019-01-24T08:20:29.308Z,41.20
2019-01-24T08:22:58.207Z,43.28
2019-01-24T08:25:26.958Z,41.68
2019-01-24T08:27:56.399Z,45.30
2019-01-24T08:30:27.187Z,42.38
2019-01-24T08:32:56.275Z,42.15
2019-01-24T08:35:25.632Z,44.63
2019-01-24T08:37:54.346Z,45.40
2019-01-24T08:40:23.414Z,43.70
2019-01-24T08:42:52.518Z,42.13
2019-01-24T08:45:21.286Z,42.15
2019-01-24T08:47:50.317Z,42.03
2019-01-24T08:50:20.607Z,37.28
2019-01-24T08:52:49.410Z,38.50
2019-01-24T08:55:35.519Z,38.15
2019-01-24T08:58:04.554Z,40.78
2019-01-24T09:00:33.287Z,38.08
2019-01-24T09:03:01.949Z,51.70
2019-01-24T09:05:30.853Z,42.65
2019-01-24T09:07:59.559Z,43.00
2019-01-24T09:10:31.006Z,31.73
2019-01-24T09:13:00.196Z,36.95
2019-01-24T09:15:29.509Z,41.70
2019-01-24T09:17:58.149Z,37.85
2019-01-24T09:20:27.093Z,35.75
2019-01-24T09:22:56.050Z,37.55
2019-01-24T09:25:24.971Z,37.03
2019-01-24T09:27:53.688Z,35.63
2019-01-24T09:30:24.042Z,34.92
2019-01-24T09:32:52.820Z,39.15
2019-01-24T09:35:21.872Z,39.85
2019-01-24T09:37:50.497Z,39.67
2019-01-24T09:40:19.648Z,37.58
2019-01-24T09:42:48.642Z,38.55
2019-01-24T09:45:19.829Z,41.30
2019-01-24T09:47:48.952Z,36.70
2019-01-24T09:50:20.039Z,36.28
2019-01-24T09:52:48.714Z,44.35
2019-01-24T09:55:17.418Z,44.77
2019-01-24T09:57:46.068Z,43.58
2019-01-24T10:00:17.632Z,37.28
2019-01-24T10:02:46.347Z,42.35
2019-01-24T10:05:15.594Z,39.23
2019-01-24T10:07:44.615Z,34.73
2019-01-24T10:10:15.845Z,38.30
2019-01-24T10:12:44.856Z,37.23
2019-01-24T10:15:14.097Z,39.90
2019-01-24T10:17:42.781Z,43.17
2019-01-24T10:20:13.366Z,38.45
2019-01-24T10:22:42.018Z,37.30
2019-01-24T10:25:17.509Z,37.42
2019-01-24T10:27:46.499Z,36.70
2019-01-24T10:30:16.993Z,36.53
2019-01-24T10:32:46.020Z,37.30
2019-01-24T10:35:15.628Z,40.25
2019-01-24T10:37:44.929Z,35.50
2019-01-24T10:40:17.347Z,40.65
2019-01-24T10:42:46.295Z,38.13
2019-01-24T10:45:15.980Z,35.78
2019-01-24T10:47:44.698Z,36.33
2019-01-24T10:50:14.678Z,36.17
2019-01-24T10:52:44.012Z,37.00
2019-01-24T10:55:15.461Z,32.63
2019-01-24T10:57:44.869Z,36.93
2019-01-24T11:00:17.646Z,41.53
2019-01-24T11:02:46.363Z,34.33
2019-01-24T11:05:16.166Z,36.25
2019-01-24T11:07:44.895Z,35.28
2019-01-24T11:10:14.864Z,36.03
2019-01-24T11:12:43.486Z,35.17
2019-01-24T11:15:15.294Z,38.00
2019-01-24T11:17:44.298Z,37.98
2019-01-24T11:20:13.520Z,38.40
2019-01-24T11:22:42.508Z,40.90
2019-01-24T11:25:14.451Z,35.83
2019-01-24T11:27:43.191Z,35.63
2019-01-24T11:30:14.999Z,36.48
2019-01-24T11:32:43.994Z,39.65
2019-01-24T11:35:14.626Z,31.97
2019-01-24T11:37:43.624Z,35.70
2019-01-24T11:40:14.127Z,36.23
2019-01-24T11:42:43.364Z,41.40
2019-01-24T11:45:12.853Z,33.67
2019-01-24T11:47:41.717Z,37.53
2019-01-24T11:50:13.909Z,38.75
2019-01-24T11:52:42.980Z,37.15
2019-01-24T11:55:12.870Z,36.75
2019-01-24T11:57:41.670Z,33.88
2019-01-24T12:00:16.844Z,37.48
2019-01-24T12:02:45.841Z,34.73
2019-01-24T12:05:14.577Z,35.13
2019-01-24T12:07:43.526Z,35.78
2019-01-24T12:10:15.173Z,38.00
2019-01-24T12:12:43.901Z,35.98
2019-01-24T12:15:14.229Z,36.85
2019-01-24T12:17:42.946Z,41.53
2019-01-24T12:20:16.163Z,35.00
2019-01-24T12:22:45.130Z,33.25
2019-01-24T12:25:14.265Z,34.67
2019-01-24T12:27:43.363Z,30.68
2019-01-24T12:30:18.531Z,32.08
2019-01-24T12:32:47.335Z,33.28
2019-01-24T12:35:16.049Z,37.70
2019-01-24T12:37:45.275Z,32.85
2019-01-24T12:40:14.369Z,32.53
2019-01-24T12:42:43.100Z,34.25
2019-01-24T12:45:14.978Z,32.60
2019-01-24T12:47:43.716Z,34.67
2019-01-24T12:50:13.932Z,36.05
2019-01-24T12:52:42.629Z,34.98
2019-01-24T12:55:11.989Z,33.55
2019-01-24T12:57:41.116Z,35.75
2019-01-24T13:00:13.924Z,34.53
2019-01-24T13:02:42.990Z,33.28
2019-01-24T13:05:11.809Z,35.98
2019-01-24T13:07:40.477Z,35.60
2019-01-24T13:10:10.417Z,34.55
2019-01-24T13:12:39.073Z,40.00
2019-01-24T13:15:08.102Z,38.25
2019-01-24T13:17:37.154Z,38.92
2019-01-24T13:20:07.553Z,40.67
2019-01-24T13:22:36.465Z,40.28
2019-01-24T13:25:08.128Z,41.73
2019-01-24T13:27:36.772Z,40.90
2019-01-24T13:30:08.213Z,40.40
2019-01-24T13:32:37.257Z,41.77
2019-01-24T13:35:06.076Z,41.35
2019-01-24T13:37:34.744Z,42.53
2019-01-24T13:40:03.488Z,43.87
2019-01-24T13:42:32.414Z,43.87
2019-01-24T13:45:01.064Z,49.83
2019-01-24T13:47:29.992Z,49.55
2019-01-24T13:49:58.992Z,43.55
2019-01-24T13:52:27.979Z,45.28
2019-01-24T13:54:56.876Z,46.42
2019-01-24T13:57:25.524Z,43.35
2019-01-24T13:59:54.647Z,44.30
2019-01-24T14:02:23.963Z,44.15
2019-01-24T14:04:52.847Z,46.50
2019-01-24T14:07:21.572Z,50.35
2019-01-24T14:09:50.199Z,47.03
2019-01-24T14:12:19.132Z,50.30
2019-01-24T14:14:48.308Z,45.60
2019-01-24T14:17:17.200Z,50.05
2019-01-24T14:19:46.095Z,45.88
2019-01-24T14:22:15.128Z,46.68
2019-01-24T14:24:44.079Z,49.53
2019-01-24T14:27:12.783Z,47.43
2019-01-24T14:29:41.769Z,54.70
2019-01-24T14:32:10.399Z,49.77
2019-01-24T14:34:39.854Z,52.03
2019-01-24T14:37:09.052Z,53.15
2019-01-24T14:39:37.704Z,49.80
2019-01-24T14:42:06.413Z,54.00
2019-01-24T14:44:35.416Z,54.98
2019-01-24T14:47:04.307Z,49.48
2019-01-24T14:49:32.960Z,56.25
2019-01-24T14:52:01.625Z,59.67
2019-01-24T14:54:30.980Z,57.62
2019-01-24T14:56:59.871Z,57.00
2019-01-24T14:59:28.865Z,51.77
2019-01-24T15:01:58.167Z,53.00
2019-01-24T15:04:27.260Z,54.83
2019-01-24T15:06:55.890Z,54.67
2019-01-24T15:09:24.867Z,57.90
2019-01-24T15:11:53.546Z,56.48
2019-01-24T15:14:22.521Z,53.48
2019-01-24T15:16:51.174Z,54.55
2019-01-24T15:19:20.411Z,58.87
2019-01-24T15:21:49.069Z,58.95
2019-01-24T15:24:17.690Z,57.93
2019-01-24T15:26:46.345Z,60.55
2019-01-24T15:29:14.968Z,55.30
2019-01-24T15:31:43.946Z,62.48
2019-01-24T15:34:12.936Z,55.63
2019-01-24T15:36:41.927Z,57.40
2019-01-24T15:39:10.574Z,59.25
2019-01-24T15:41:39.817Z,59.90
2019-01-24T15:44:08.528Z,55.90
2019-01-24T15:46:37.498Z,53.63
2019-01-24T15:49:06.485Z,61.20
2019-01-24T15:51:35.480Z,59.60
2019-01-24T15:54:04.579Z,58.60
2019-01-24T15:56:33.569Z,53.90
2019-01-24T15:59:02.465Z,55.23
2019-01-24T16:01:31.182Z,55.85
2019-01-24T16:04:00.148Z,58.60
2019-01-24T16:06:29.733Z,60.52
2019-01-24T16:08:58.639Z,55.90
2019-01-24T16:11:27.644Z,56.70
2019-01-24T16:13:56.624Z,58.13
2019-01-24T16:16:25.253Z,59.95
2019-01-24T16:18:54.208Z,59.08
2019-01-24T16:21:23.200Z,60.60
2019-01-24T16:23:52.080Z,58.95
2019-01-24T16:26:21.083Z,59.55
2019-01-24T16:28:49.735Z,62.70
2019-01-24T16:31:18.356Z,58.70
2019-01-24T16:33:47.031Z,65.22
2019-01-24T16:36:15.782Z,61.23
2019-01-24T16:38:44.719Z,63.80
2019-01-24T16:41:13.628Z,62.98
2019-01-24T16:43:42.325Z,63.58
2019-01-24T16:46:11.700Z,64.05
2019-01-24T16:48:40.592Z,66.22
2019-01-24T16:51:09.331Z,61.25
2019-01-24T16:53:37.967Z,62.38
2019-01-24T16:56:06.667Z,62.15
2019-01-24T16:58:35.953Z,57.10
2019-01-24T17:01:09.871Z,57.73
2019-01-24T17:03:38.515Z,62.62
2019-01-24T17:06:07.856Z,57.48
2019-01-24T17:08:36.508Z,62.35
2019-01-24T17:11:05.519Z,65.47
2019-01-24T17:13:34.528Z,62.08
2019-01-24T17:16:03.845Z,56.55
2019-01-24T17:18:32.558Z,57.43
2019-01-24T17:21:01.504Z,56.10
2019-01-24T17:23:30.497Z,57.98
2019-01-24T17:25:59.617Z,59.10
2019-01-24T17:28:28.587Z,54.67
2019-01-24T17:30:57.525Z,58.20
2019-01-24T17:33:26.474Z,58.08
2019-01-24T17:35:55.104Z,54.38
2019-01-24T17:38:24.167Z,54.55
2019-01-24T17:40:53.151Z,52.35
2019-01-24T17:43:22.466Z,55.58
2019-01-24T17:45:51.446Z,59.15
2019-01-24T17:48:20.452Z,58.65
2019-01-24T17:50:49.341Z,51.20
2019-01-24T17:53:17.975Z,51.77
2019-01-24T17:55:47.307Z,50.12
2019-01-24T17:58:16.310Z,43.48
2019-01-24T18:00:50.405Z,46.40
2019-01-24T18:03:19.325Z,47.23
2019-01-24T18:05:48.310Z,45.65
2019-01-24T18:08:17.300Z,51.95
2019-01-24T18:10:45.945Z,51.13
2019-01-24T18:13:14.853Z,53.42
2019-01-24T18:15:43.983Z,49.10
2019-01-24T18:18:14.373Z,49.38
2019-01-24T18:20:43.611Z,46.73
2019-01-24T18:23:12.812Z,43.65
2019-01-24T18:25:41.908Z,49.27
2019-01-24T18:28:12.639Z,50.90
2019-01-24T18:30:41.735Z,45.15
2019-01-24T18:33:10.728Z,50.30
2019-01-24T18:35:39.520Z,50.83
2019-01-24T18:38:08.938Z,52.10
2019-01-24T18:40:37.775Z,53.58
2019-01-24T18:43:10.467Z,54.20
2019-01-24T18:45:42.938Z,55.35
2019-01-24T18:48:11.662Z,59.83
2019-01-24T18:50:40.357Z,65.70
2019-01-24T18:53:09.107Z,59.85
2019-01-24T18:55:37.748Z,60.98
2019-01-24T18:58:07.325Z,52.45
2019-01-24T19:00:38.765Z,53.33
2019-01-24T19:03:08.680Z,55.78
2019-01-24T19:05:37.879Z,55.70
2019-01-24T19:08:06.719Z,66.33
2019-01-24T19:10:35.446Z,58.17
2019-01-24T19:13:05.115Z,59.20
2019-01-24T19:15:33.793Z,59.80
2019-01-24T19:18:02.748Z,58.05
2019-01-24T19:20:31.514Z,66.47
2019-01-24T19:23:00.528Z,56.90
2019-01-24T19:25:29.154Z,54.88
2019-01-24T19:27:58.144Z,59.35
2019-01-24T19:30:29.255Z,52.10
2019-01-24T19:32:57.879Z,60.15
2019-01-24T19:35:26.581Z,55.08
2019-01-24T19:37:55.567Z,55.28
2019-01-24T19:40:25.348Z,58.90
2019-01-24T19:42:54.059Z,63.73
2019-01-24T19:45:24.092Z,56.85
2019-01-24T19:47:52.940Z,52.38
2019-01-24T19:50:23.861Z,49.67
2019-01-24T19:52:52.768Z,52.43
2019-01-24T19:55:21.838Z,51.20
2019-01-24T19:57:50.779Z,51.48
2019-01-24T20:00:24.700Z,51.28
2019-01-24T20:02:53.753Z,44.03
2019-01-24T20:05:22.736Z,50.33
2019-01-24T20:07:51.830Z,47.30
2019-01-24T20:10:22.298Z,47.75
2019-01-24T20:12:51.371Z,45.50
2019-01-24T20:15:22.001Z,47.27
2019-01-24T20:17:51.051Z,46.15
2019-01-24T20:20:20.339Z,41.05
2019-01-24T20:22:49.558Z,40.33
2019-01-24T20:25:20.226Z,44.50
2019-01-24T20:27:48.931Z,45.38
2019-01-24T20:30:22.207Z,42.15
2019-01-24T20:32:51.403Z,51.95
2019-01-24T20:35:26.340Z,45.98
2019-01-24T20:37:55.037Z,42.27
2019-01-24T20:40:23.739Z,48.13
2019-01-24T20:42:52.803Z,43.80
2019-01-24T20:45:21.798Z,45.85
2019-01-24T20:47:50.795Z,40.85
2019-01-24T20:50:19.465Z,42.75
2019-01-24T20:52:48.472Z,49.00
2019-01-24T20:55:17.206Z,42.48
2019-01-24T20:57:46.560Z,50.10
2019-01-24T21:00:20.058Z,48.55
2019-01-24T21:02:49.667Z,46.83
2019-01-24T21:05:19.935Z,49.58
2019-01-24T21:07:49.143Z,49.60
2019-01-24T21:10:22.892Z,47.78
2019-01-24T21:12:52.196Z,49.73
2019-01-24T21:15:21.598Z,49.03
2019-01-24T21:17:50.591Z,53.05
2019-01-24T21:20:24.093Z,45.15
2019-01-24T21:22:53.084Z,45.70
2019-01-24T21:25:22.811Z,51.33
2019-01-24T21:27:51.526Z,50.35
2019-01-24T21:30:25.960Z,47.83
2019-01-24T21:32:55.020Z,50.95
2019-01-24T21:35:24.300Z,52.93
2019-01-24T21:37:53.043Z,48.08
2019-01-24T21:40:22.490Z,47.48
2019-01-24T21:42:51.792Z,39.63
2019-01-24T21:45:23.141Z,47.43
2019-01-24T21:47:52.441Z,50.55
2019-01-24T21:50:22.691Z,38.23
2019-01-24T21:52:51.656Z,49.67
2019-01-24T21:55:21.346Z,47.20
2019-01-24T21:57:50.563Z,46.28
2019-01-24T22:00:21.163Z,46.15
2019-01-24T22:02:50.609Z,48.98
2019-01-24T22:05:20.299Z,44.75
2019-01-24T22:07:49.413Z,47.95
2019-01-24T22:10:20.560Z,48.25
2019-01-24T22:12:49.351Z,43.78
2019-01-24T22:15:19.669Z,47.25
2019-01-24T22:17:48.667Z,45.28
2019-01-24T22:20:17.757Z,47.53
2019-01-24T22:22:46.779Z,43.90
2019-01-24T22:25:17.470Z,45.78
2019-01-24T22:27:46.687Z,47.55
2019-01-24T22:30:21.548Z,50.58
2019-01-24T22:32:50.610Z,43.63
2019-01-24T22:35:19.324Z,48.63
2019-01-24T22:37:48.111Z,43.92
2019-01-24T22:40:16.923Z,48.70
2019-01-24T22:42:45.969Z,45.92
2019-01-24T22:45:17.726Z,47.78
2019-01-24T22:47:46.722Z,47.40
2019-01-24T22:50:16.336Z,46.68
2019-01-24T22:52:45.390Z,39.60
2019-01-24T22:55:15.197Z,48.42
2019-01-24T22:57:43.828Z,50.88
2019-01-24T23:00:47.428Z,52.90
2019-01-24T23:03:19.289Z,40.75
2019-01-24T23:05:47.935Z,51.02
2019-01-24T23:08:16.869Z,53.00
2019-01-24T23:10:45.572Z,51.65
2019-01-24T23:13:14.218Z,47.62
2019-01-24T23:15:43.237Z,53.13
2019-01-24T23:18:12.249Z,48.87
2019-01-24T23:20:40.965Z,47.35
2019-01-24T23:23:09.701Z,49.88
2019-01-24T23:25:38.343Z,49.08
2019-01-24T23:28:07.996Z,53.05
2019-01-24T23:30:36.643Z,54.10
2019-01-24T23:33:05.778Z,58.13
2019-01-24T23:35:34.423Z,54.93
2019-01-24T23:38:03.162Z,53.58
2019-01-24T23:40:32.354Z,52.23
2019-01-24T23:43:01.343Z,48.80
2019-01-24T23:45:30.079Z,50.38
2019-01-24T23:47:59.025Z,53.52
2019-01-24T23:50:27.663Z,47.67
2019-01-24T23:52:56.819Z,49.05
2019-01-24T23:55:25.439Z,55.50
2019-01-24T23:57:54.124Z,48.30
